Tupper Lake, NY

7:51 PM EDT on March 26, 2015 (GMT -0400)
The Wild Center | | Change Station
CLOSE
Current Station
Personal Weather Station
Location: Tupper Lake, NY
Elevation: 1640 ft
Nearby Weather Stations

Elev 1640 ft 44.22 °N, 74.44 °W | Updated 9 seconds ago

Overcast
Overcast
33.6 °F
Feels Like 34 °F
N
0.0
Wind Variable Wind from NW
Gusts 3.0 mph

Today
High -- | Low -- °F
--% Chance of Precip.
Yesterday
High -- | Low -- °F
Precip. -- in
6:50 AM 7:17 PM
Waxing Crescent, 47% visible
Pressure 29.69 in
Visibility 2.5 miles
Clouds Overcast 300 ft
Windchill 34 °F
Dew Point 33 °F
Humidity 96%
Rainfall 0.27 in
Snow Depth Not available.
UV 0 out of 12
Pollen .60 out of 12
Air Quality Not available.
Flu Activity Not available.
SPECI KSLK 262340Z AUTO 24003KT 2 1/2SM -SN BR OVC003 01/00 A2969 RMK AO2 P0001 T00060000

More Conditions Fewer Conditions

Pressure 29.69 in
Visibility 2.5 miles
Clouds Overcast 300 ft
Windchill 34 °F
Dew Point 33 °F
Humidity 96%
Rainfall 0.27 in
Snow Depth Not available.
UV 0 out of 12
Pollen .60 out of 12
Air Quality Not available.
Flu Activity Not available.
SPECI KSLK 262340Z AUTO 24003KT 2 1/2SM -SN BR OVC003 01/00 A2969 RMK AO2 P0001 T00060000

More Conditions Fewer Conditions

10-Day Weather Forecast

Almanac

Astronomy

Mar. 26, 2015 Rise Set
Actual Time
Civil Twilight
Nautical Twilight
Astronomical Twilight
Moon
Length of Visible Light
Length of Day
Tomorrow will be .
, % of the Moon is Illuminated

Today's Extremes

State Highs State Lows

Community

WunderPhotos

Upload Photos

1,808,643 photos uploaded!

WunderBlogs® & News

Nearby

Air Quality

  Air Quality AQ Index Pollutant
Not available.

Snow Depth

Station Depth Elevation

Earthquake Activity

City Distance Mag. Time & Date
Minimum magnitude displayed is 2.5.

Coastal Water Temperatures

Place Temperature

Stations

Nearby Weather Stations

Station Location Temp. Windchill Dew Point Humidity Wind Precip. Elev Updated Type